Time;durP1;ratioP1;P1;durP2;ratioP2;P2;SDS_P1;SDS_P2;PMS_P1;PMS_P2;Temp;Humidity;BMP_temperature;BMP_pressure;BME280_temperature;BME280_humidity;BME280_pressure;Samples;Min_cycle;Max_cycle;Signal;HPM_P1;HPM_P2
2023/07/17 00:01:51;;;;;;;5.57;2.05;;;;;;;;;;5058886;28;20211;-61
2023/07/17 00:04:19;;;;;;;2.60;2.40;;;;;;;;;;5051633;28;20594;-60
2023/07/17 00:06:46;;;;;;;2.58;2.00;;;;;;;;;;5068045;28;20723;-60
2023/07/17 00:09:13;;;;;;;2.90;2.15;;;;;;;;;;5072094;28;20211;-60
2023/07/17 00:11:40;;;;;;;1.80;1.70;;;;;;;;;;5069175;28;20207;-60
2023/07/17 00:14:08;;;;;;;1.70;1.60;;;;;;;;;;5069193;28;20211;-60
2023/07/17 00:16:35;;;;;;;2.20;1.80;;;;;;;;;;5071103;28;20620;-60
2023/07/17 00:19:02;;;;;;;3.72;2.35;;;;;;;;;;5059638;28;20223;-60
2023/07/17 00:21:30;;;;;;;2.55;2.33;;;;;;;;;;5052459;28;20226;-60
2023/07/17 00:23:57;;;;;;;3.90;2.15;;;;;;;;;;5069541;28;20219;-60
2023/07/17 00:26:24;;;;;;;2.03;1.85;;;;;;;;;;5070753;28;20298;-60
2023/07/17 00:28:51;;;;;;;2.50;1.92;;;;;;;;;;5071375;28;20274;-60
2023/07/17 00:31:19;;;;;;;1.95;1.85;;;;;;;;;;5071211;28;20203;-60
2023/07/17 00:33:46;;;;;;;3.45;2.03;;;;;;;;;;5069080;28;20211;-61
2023/07/17 00:36:13;;;;;;;2.10;2.00;;;;;;;;;;5062061;28;20903;-60
2023/07/17 00:38:41;;;;;;;2.70;1.88;;;;;;;;;;5051722;28;20204;-60
2023/07/17 00:43:55;;;;;;;2.10;1.60;;;;;;;;;;5054592;28;20241;-60
2023/07/17 00:46:23;;;;;;;2.03;1.92;;;;;;;;;;5071284;28;20222;-60
2023/07/17 00:48:50;;;;;;;4.45;2.20;;;;;;;;;;5071631;28;20215;-60
2023/07/17 00:51:17;;;;;;;2.15;2.05;;;;;;;;;;5070614;28;20218;-60
2023/07/17 00:53:46;;;;;;;1.98;1.83;;;;;;;;;;5060288;28;20200;-61
2023/07/17 00:56:13;;;;;;;3.03;2.20;;;;;;;;;;5059588;28;20689;-60
2023/07/17 00:58:40;;;;;;;2.05;1.83;;;;;;;;;;5068967;28;20241;-60
2023/07/17 01:01:08;;;;;;;4.50;2.25;;;;;;;;;;5069163;28;20225;-61
2023/07/17 01:03:35;;;;;;;2.00;1.90;;;;;;;;;;5066925;28;20226;-61
2023/07/17 01:06:02;;;;;;;2.42;1.77;;;;;;;;;;5055067;28;20215;-61
2023/07/17 01:08:29;;;;;;;2.22;2.13;;;;;;;;;;5052816;28;20228;-60
2023/07/17 01:10:58;;;;;;;2.53;2.13;;;;;;;;;;5069517;28;20211;-61
2023/07/17 01:13:25;;;;;;;3.03;2.22;;;;;;;;;;5062613;28;20204;-60
2023/07/17 01:15:52;;;;;;;2.10;1.85;;;;;;;;;;5059429;28;20235;-60
2023/07/17 01:18:19;;;;;;;2.05;1.95;;;;;;;;;;5050740;28;20208;-60
2023/07/17 01:20:46;;;;;;;2.35;1.90;;;;;;;;;;5064643;28;20199;-60
2023/07/17 01:23:14;;;;;;;2.30;2.10;;;;;;;;;;5052403;28;20301;-61
2023/07/17 01:25:41;;;;;;;3.00;2.05;;;;;;;;;;5058178;28;20207;-60
2023/07/17 01:28:09;;;;;;;2.00;1.90;;;;;;;;;;5057458;28;20230;-60
2023/07/17 01:30:36;;;;;;;2.65;2.13;;;;;;;;;;5070783;28;20242;-60
2023/07/17 01:33:03;;;;;;;4.03;2.40;;;;;;;;;;5070406;28;20230;-60
2023/07/17 01:35:30;;;;;;;2.15;2.05;;;;;;;;;;5067122;28;20214;-60
2023/07/17 01:37:57;;;;;;;1.67;1.58;;;;;;;;;;5066810;28;20312;-60
2023/07/17 01:40:25;;;;;;;2.08;1.88;;;;;;;;;;5070391;28;20215;-60
2023/07/17 01:42:52;;;;;;;2.08;1.98;;;;;;;;;;5067888;28;20234;-60
2023/07/17 01:45:19;;;;;;;2.38;2.20;;;;;;;;;;5065142;28;20211;-61
2023/07/17 01:47:46;;;;;;;1.65;1.55;;;;;;;;;;5069380;28;20497;-61
2023/07/17 01:50:14;;;;;;;2.72;2.42;;;;;;;;;;5070517;28;20207;-60
2023/07/17 01:52:40;;;;;;;2.20;1.73;;;;;;;;;;5069824;28;20211;-60
2023/07/17 01:55:07;;;;;;;2.15;1.95;;;;;;;;;;5052862;28;20281;-60
2023/07/17 01:57:35;;;;;;;1.98;1.80;;;;;;;;;;5052164;28;20237;-61
2023/07/17 02:00:03;;;;;;;2.13;2.03;;;;;;;;;;5050116;28;20216;-60
2023/07/17 02:02:30;;;;;;;2.80;1.77;;;;;;;;;;5049818;28;20829;-60
2023/07/17 02:04:57;;;;;;;1.98;1.80;;;;;;;;;;5057509;28;20239;-60
2023/07/17 02:07:24;;;;;;;2.17;2.05;;;;;;;;;;5058383;28;20207;-60
2023/07/17 02:09:51;;;;;;;2.08;1.90;;;;;;;;;;5068613;28;20241;-60
2023/07/17 02:12:18;;;;;;;2.08;1.88;;;;;;;;;;5069272;28;20211;-61
2023/07/17 02:14:47;;;;;;;2.28;1.95;;;;;;;;;;5061420;28;20203;-60
2023/07/17 02:17:14;;;;;;;2.10;1.98;;;;;;;;;;5064421;28;20235;-60
2023/07/17 02:19:41;;;;;;;2.55;2.30;;;;;;;;;;5049833;28;20219;-60
2023/07/17 02:22:08;;;;;;;1.92;1.83;;;;;;;;;;5048803;28;20222;-60
2023/07/17 02:24:35;;;;;;;2.35;2.15;;;;;;;;;;5051491;28;20222;-60
2023/07/17 02:27:02;;;;;;;2.33;2.13;;;;;;;;;;5058676;28;20249;-61
2023/07/17 02:29:29;;;;;;;2.25;2.15;;;;;;;;;;5069032;28;20211;-60
2023/07/17 02:31:58;;;;;;;2.17;2.08;;;;;;;;;;5069370;28;20214;-60
2023/07/17 02:34:25;;;;;;;2.25;2.00;;;;;;;;;;5066926;28;20208;-60
2023/07/17 02:36:53;;;;;;;2.15;2.05;;;;;;;;;;5062187;28;20224;-60
2023/07/17 02:39:21;;;;;;;1.98;1.88;;;;;;;;;;5068416;28;20207;-60
2023/07/17 02:41:48;;;;;;;1.58;1.48;;;;;;;;;;5068402;28;20211;-60
2023/07/17 02:44:15;;;;;;;2.58;1.83;;;;;;;;;;5068961;28;20234;-60
2023/07/17 02:46:42;;;;;;;1.70;1.58;;;;;;;;;;5067960;28;20215;-60
2023/07/17 02:49:13;;;;;;;3.33;2.00;;;;;;;;;;5058631;28;20208;-60
2023/07/17 02:51:40;;;;;;;3.38;2.03;;;;;;;;;;5049366;28;20231;-60
2023/07/17 02:54:08;;;;;;;2.58;2.17;;;;;;;;;;5049145;28;20226;-60
2023/07/17 02:56:35;;;;;;;2.25;1.80;;;;;;;;;;5050005;28;20269;-60
2023/07/17 02:59:03;;;;;;;2.55;2.00;;;;;;;;;;5055796;28;20764;-60
2023/07/17 03:01:30;;;;;;;2.22;2.13;;;;;;;;;;5048934;28;20211;-60
2023/07/17 03:03:57;;;;;;;1.90;1.90;;;;;;;;;;5048852;28;20231;-60
2023/07/17 03:06:26;;;;;;;3.47;2.20;;;;;;;;;;5048624;28;20576;-60
2023/07/17 03:08:53;;;;;;;3.50;1.90;;;;;;;;;;5061782;28;20203;-60
2023/07/17 03:11:20;;;;;;;2.65;2.05;;;;;;;;;;5055946;28;20229;-60
2023/07/17 03:13:47;;;;;;;2.38;2.20;;;;;;;;;;5068210;28;20210;-60
2023/07/17 03:16:14;;;;;;;2.28;2.10;;;;;;;;;;5067266;28;20574;-60
2023/07/17 03:18:41;;;;;;;2.17;2.08;;;;;;;;;;5068265;28;20210;-61
2023/07/17 03:21:08;;;;;;;2.08;1.95;;;;;;;;;;5064388;28;20207;-60
2023/07/17 03:23:36;;;;;;;2.20;2.10;;;;;;;;;;5067473;28;20226;-61
2023/07/17 03:26:03;;;;;;;2.08;1.90;;;;;;;;;;5066108;28;20221;-60
2023/07/17 03:28:30;;;;;;;2.88;2.10;;;;;;;;;;5064897;28;20291;-60
2023/07/17 03:30:57;;;;;;;2.33;2.13;;;;;;;;;;5068206;28;20222;-60
2023/07/17 03:33:24;;;;;;;2.17;2.08;;;;;;;;;;5047991;28;20203;-60
2023/07/17 03:35:51;;;;;;;2.75;1.83;;;;;;;;;;5048253;28;20273;-61
2023/07/17 03:38:18;;;;;;;3.03;2.22;;;;;;;;;;5060881;28;20203;-60
2023/07/17 03:40:47;;;;;;;6.07;2.05;;;;;;;;;;5066073;28;20264;-60
2023/07/17 03:43:14;;;;;;;2.22;2.00;;;;;;;;;;5062703;28;20229;-60
2023/07/17 03:45:41;;;;;;;4.63;2.00;;;;;;;;;;5067408;28;20705;-60
2023/07/17 03:48:08;;;;;;;1.95;1.77;;;;;;;;;;5047909;28;20208;-60
2023/07/17 03:50:35;;;;;;;2.08;1.95;;;;;;;;;;5063987;28;20683;-60
2023/07/17 03:53:02;;;;;;;2.00;1.90;;;;;;;;;;5060236;28;20207;-61
2023/07/17 03:55:29;;;;;;;2.65;1.80;;;;;;;;;;5048095;28;20207;-60
2023/07/17 03:57:57;;;;;;;1.88;1.77;;;;;;;;;;5060499;28;20199;-60
2023/07/17 04:00:25;;;;;;;1.58;1.50;;;;;;;;;;5064396;28;20227;-60
2023/07/17 04:02:52;;;;;;;2.30;2.10;;;;;;;;;;5049528;28;20226;-60
2023/07/17 04:05:19;;;;;;;2.38;2.28;;;;;;;;;;5062858;28;20227;-61
2023/07/17 04:07:46;;;;;;;4.43;2.05;;;;;;;;;;5057426;28;20211;-61
2023/07/17 04:10:13;;;;;;;2.58;2.05;;;;;;;;;;5067621;28;20210;-60
2023/07/17 04:12:40;;;;;;;2.40;2.20;;;;;;;;;;5066562;28;20207;-60
2023/07/17 04:15:09;;;;;;;1.80;1.70;;;;;;;;;;5062421;28;20199;-60
2023/07/17 04:17:36;;;;;;;1.92;1.88;;;;;;;;;;5056208;28;21161;-60
2023/07/17 04:20:04;;;;;;;2.28;1.88;;;;;;;;;;5047245;28;20207;-60
2023/07/17 04:22:31;;;;;;;4.32;1.70;;;;;;;;;;5047824;28;20207;-60
2023/07/17 04:24:58;;;;;;;1.73;1.63;;;;;;;;;;5064191;28;20226;-60
2023/07/17 04:27:25;;;;;;;2.05;1.95;;;;;;;;;;5062724;28;20206;-60
2023/07/17 04:29:52;;;;;;;1.73;1.63;;;;;;;;;;5049818;28;20203;-60
2023/07/17 04:32:20;;;;;;;1.88;1.67;;;;;;;;;;5055160;28;20195;-60
2023/07/17 04:34:48;;;;;;;1.58;1.48;;;;;;;;;;5067677;28;20677;-61
2023/07/17 04:37:15;;;;;;;2.55;1.67;;;;;;;;;;5063121;28;20210;-60
2023/07/17 04:39:42;;;;;;;4.43;2.30;;;;;;;;;;5065939;28;20208;-60
2023/07/17 04:42:10;;;;;;;1.88;1.77;;;;;;;;;;5047306;28;20219;-60
2023/07/17 04:44:37;;;;;;;1.85;1.75;;;;;;;;;;5060771;28;20284;-61
2023/07/17 04:47:04;;;;;;;3.85;1.58;;;;;;;;;;5069481;28;20214;-60
2023/07/17 04:49:32;;;;;;;1.88;1.80;;;;;;;;;;5051704;28;20207;-60
2023/07/17 04:51:59;;;;;;;1.70;1.70;;;;;;;;;;5056535;28;20216;-60
2023/07/17 04:54:26;;;;;;;4.55;1.95;;;;;;;;;;5055647;28;20195;-60
2023/07/17 04:56:53;;;;;;;3.33;1.65;;;;;;;;;;5053019;28;20588;-60
2023/07/17 04:59:20;;;;;;;1.80;1.67;;;;;;;;;;5061960;28;20203;-60
2023/07/17 05:01:47;;;;;;;1.85;1.73;;;;;;;;;;5055583;28;20208;-60
2023/07/17 05:04:14;;;;;;;2.63;1.88;;;;;;;;;;5066451;28;20226;-61
2023/07/17 05:06:43;;;;;;;3.67;2.15;;;;;;;;;;5070835;28;20669;-60
2023/07/17 05:09:10;;;;;;;1.90;1.83;;;;;;;;;;5060777;28;20299;-60
2023/07/17 05:11:37;;;;;;;4.88;1.90;;;;;;;;;;5069068;28;20211;-60
2023/07/17 05:14:04;;;;;;;4.30;2.28;;;;;;;;;;5050698;28;20219;-60
2023/07/17 05:16:31;;;;;;;2.90;1.80;;;;;;;;;;5063478;28;20234;-61
2023/07/17 05:18:58;;;;;;;3.55;1.50;;;;;;;;;;5070122;28;20207;-61
2023/07/17 05:21:25;;;;;;;2.05;1.88;;;;;;;;;;5061756;28;20873;-61
2023/07/17 05:23:53;;;;;;;1.60;1.58;;;;;;;;;;5060637;28;20210;-60
2023/07/17 05:26:20;;;;;;;2.03;1.90;;;;;;;;;;5062004;28;20203;-61
2023/07/17 05:28:49;;;;;;;1.77;1.67;;;;;;;;;;5050015;28;20212;-61
2023/07/17 05:31:16;;;;;;;1.88;1.77;;;;;;;;;;5061352;28;20238;-59
2023/07/17 05:37:01;;;;;;;2.90;2.00;;;;;;;;;;5035179;28;20215;-59
2023/07/17 05:39:30;;;;;;;2.20;2.00;;;;;;;;;;5068306;28;20239;-58
2023/07/17 05:41:57;;;;;;;1.95;1.80;;;;;;;;;;5068329;28;20211;-58
2023/07/17 05:44:24;;;;;;;1.80;1.70;;;;;;;;;;5069311;28;20234;-58
2023/07/17 05:46:51;;;;;;;3.20;2.33;;;;;;;;;;5069528;28;20207;-58
2023/07/17 05:49:18;;;;;;;3.22;2.20;;;;;;;;;;5069221;28;20235;-59
2023/07/17 05:51:45;;;;;;;1.90;1.80;;;;;;;;;;5069193;28;20206;-59
2023/07/17 05:54:12;;;;;;;2.53;2.15;;;;;;;;;;5069279;28;20310;-59
2023/07/17 05:56:40;;;;;;;1.95;1.80;;;;;;;;;;5068161;28;20211;-59
2023/07/17 05:59:07;;;;;;;2.33;1.95;;;;;;;;;;5069225;28;20238;-58
2023/07/17 06:01:34;;;;;;;1.48;1.48;;;;;;;;;;5069241;28;20226;-59
2023/07/17 06:04:02;;;;;;;1.45;1.35;;;;;;;;;;5069341;28;20230;-59
2023/07/17 06:06:29;;;;;;;1.90;1.80;;;;;;;;;;5068859;28;20227;-58
2023/07/17 06:08:58;;;;;;;2.17;1.55;;;;;;;;;;5069145;28;20211;-58
2023/07/17 06:11:25;;;;;;;1.80;1.70;;;;;;;;;;5068967;28;20233;-58
2023/07/17 06:13:53;;;;;;;2.05;1.95;;;;;;;;;;5068474;28;21046;-59
2023/07/17 06:16:20;;;;;;;2.75;2.22;;;;;;;;;;5068596;28;20603;-59
2023/07/17 06:18:47;;;;;;;3.10;1.90;;;;;;;;;;5068638;28;20214;-59
2023/07/17 06:21:14;;;;;;;3.30;1.77;;;;;;;;;;5067882;28;20452;-59
2023/07/17 06:23:41;;;;;;;2.95;2.13;;;;;;;;;;5068889;28;20681;-59
2023/07/17 06:26:08;;;;;;;2.85;2.22;;;;;;;;;;5067629;28;20232;-59
2023/07/17 06:28:38;;;;;;;1.98;1.85;;;;;;;;;;5068538;28;20221;-59
2023/07/17 06:31:06;;;;;;;1.75;1.70;;;;;;;;;;5067367;28;20207;-59
2023/07/17 06:33:34;;;;;;;3.17;1.50;;;;;;;;;;5068513;28;20207;-59
2023/07/17 06:36:02;;;;;;;2.00;1.80;;;;;;;;;;5065911;28;20207;-59
2023/07/17 06:38:29;;;;;;;3.08;2.22;;;;;;;;;;5068441;28;20206;-59
2023/07/17 06:40:56;;;;;;;2.13;1.73;;;;;;;;;;5067913;28;20313;-59
2023/07/17 06:43:23;;;;;;;1.92;1.80;;;;;;;;;;5068388;28;20260;-59
2023/07/17 06:45:50;;;;;;;2.30;2.00;;;;;;;;;;5065554;28;20224;-60
2023/07/17 06:48:18;;;;;;;3.60;2.00;;;;;;;;;;5067490;28;20221;-59
2023/07/17 06:50:46;;;;;;;3.85;1.95;;;;;;;;;;5067863;28;20762;-58
2023/07/17 06:53:13;;;;;;;2.05;1.90;;;;;;;;;;5056579;28;20203;-58
2023/07/17 06:55:40;;;;;;;2.38;2.17;;;;;;;;;;5068018;28;20207;-59
2023/07/17 06:58:07;;;;;;;2.45;2.25;;;;;;;;;;5067915;28;20203;-59
2023/07/17 07:00:34;;;;;;;5.03;2.17;;;;;;;;;;5067310;28;20226;-58
2023/07/17 07:03:01;;;;;;;2.28;2.17;;;;;;;;;;5067894;28;20218;-58
2023/07/17 07:05:30;;;;;;;2.05;1.85;;;;;;;;;;5066793;28;20235;-59
2023/07/17 07:07:57;;;;;;;3.90;1.90;;;;;;;;;;5064794;28;20237;-59
2023/07/17 07:10:24;;;;;;;3.85;2.15;;;;;;;;;;5067565;28;20213;-57
2023/07/17 07:12:51;;;;;;;2.08;1.98;;;;;;;;;;5067665;28;20427;-60
2023/07/17 07:15:18;;;;;;;2.33;1.50;;;;;;;;;;5068264;28;20214;-60
2023/07/17 07:17:45;;;;;;;2.00;1.90;;;;;;;;;;5067295;28;20674;-61
2023/07/17 07:20:12;;;;;;;2.28;2.13;;;;;;;;;;5066930;28;20604;-61
2023/07/17 07:22:41;;;;;;;2.50;1.58;;;;;;;;;;5067868;28;20286;-61
2023/07/17 07:25:08;;;;;;;2.33;2.13;;;;;;;;;;5068034;28;20226;-60
2023/07/17 07:27:35;;;;;;;1.88;1.75;;;;;;;;;;5067538;28;20214;-60
2023/07/17 07:30:04;;;;;;;1.95;1.85;;;;;;;;;;5065753;28;20233;-60
2023/07/17 07:32:31;;;;;;;2.65;1.83;;;;;;;;;;5066421;28;20203;-61
2023/07/17 07:34:58;;;;;;;2.28;1.60;;;;;;;;;;5067772;28;20202;-60
2023/07/17 07:37:25;;;;;;;2.47;1.73;;;;;;;;;;5067637;28;20207;-61
2023/07/17 07:39:53;;;;;;;3.75;2.10;;;;;;;;;;5067531;28;20700;-59
2023/07/17 07:42:20;;;;;;;2.28;1.90;;;;;;;;;;5066989;28;20213;-60
2023/07/17 07:44:48;;;;;;;1.52;1.48;;;;;;;;;;5067660;28;20211;-60
2023/07/17 07:47:15;;;;;;;1.77;1.77;;;;;;;;;;5067259;28;20239;-60
2023/07/17 07:49:42;;;;;;;2.13;2.03;;;;;;;;;;5067429;28;20210;-61
2023/07/17 07:52:09;;;;;;;1.90;1.80;;;;;;;;;;5067066;28;20209;-61
2023/07/17 07:54:36;;;;;;;2.58;1.98;;;;;;;;;;5057882;28;20215;-60
2023/07/17 07:57:05;;;;;;;2.33;1.80;;;;;;;;;;5063420;28;20202;-61
2023/07/17 07:59:32;;;;;;;1.58;1.52;;;;;;;;;;5052889;28;20203;-60
2023/07/17 08:01:59;;;;;;;1.92;1.83;;;;;;;;;;5067242;28;20205;-61
2023/07/17 08:04:26;;;;;;;1.48;1.48;;;;;;;;;;5065223;28;20203;-60
2023/07/17 08:06:53;;;;;;;1.80;1.70;;;;;;;;;;5066904;28;20222;-59
2023/07/17 08:09:20;;;;;;;1.70;1.60;;;;;;;;;;5067603;28;20207;-58
2023/07/17 08:11:47;;;;;;;1.73;1.63;;;;;;;;;;5067156;28;20207;-59
2023/07/17 08:14:16;;;;;;;2.45;1.92;;;;;;;;;;5067634;28;20230;-59
2023/07/17 08:16:46;;;;;;;2.22;2.03;;;;;;;;;;5067275;28;20596;-60
2023/07/17 08:19:13;;;;;;;1.80;1.70;;;;;;;;;;5047477;28;20222;-61
2023/07/17 08:21:40;;;;;;;3.95;1.63;;;;;;;;;;5053103;28;20238;-62
2023/07/17 08:24:07;;;;;;;1.70;1.60;;;;;;;;;;5071360;28;20649;-62
2023/07/17 08:26:34;;;;;;;1.50;1.50;;;;;;;;;;5070547;28;20242;-61
2023/07/17 08:29:02;;;;;;;3.70;1.98;;;;;;;;;;5070775;28;20199;-61
2023/07/17 08:31:31;;;;;;;1.88;1.77;;;;;;;;;;5070768;28;20281;-61
2023/07/17 08:33:58;;;;;;;2.55;1.70;;;;;;;;;;5069547;28;20269;-61
2023/07/17 08:36:26;;;;;;;1.95;1.75;;;;;;;;;;5071414;28;20211;-61
2023/07/17 08:38:53;;;;;;;2.88;1.35;;;;;;;;;;5071013;28;20218;-61
2023/07/17 08:41:20;;;;;;;2.35;1.70;;;;;;;;;;5069413;28;20199;-61
2023/07/17 08:43:48;;;;;;;1.52;1.40;;;;;;;;;;5070023;28;20244;-61
2023/07/17 08:46:15;;;;;;;3.10;1.60;;;;;;;;;;5070231;28;20223;-61
2023/07/17 08:48:44;;;;;;;2.03;1.92;;;;;;;;;;5063644;28;20207;-61
2023/07/17 08:51:12;;;;;;;1.50;1.40;;;;;;;;;;5050038;28;20211;-62
2023/07/17 08:53:41;;;;;;;3.17;1.33;;;;;;;;;;5060823;28;20206;-61
2023/07/17 08:56:09;;;;;;;2.03;1.30;;;;;;;;;;5062039;28;20251;-62
2023/07/17 08:58:37;;;;;;;1.52;1.42;;;;;;;;;;5064977;28;20218;-61
2023/07/17 09:01:04;;;;;;;1.70;1.60;;;;;;;;;;5054312;28;20239;-62
2023/07/17 09:03:32;;;;;;;5.00;1.40;;;;;;;;;;5063106;28;20236;-62
2023/07/17 09:06:03;;;;;;;4.28;1.40;;;;;;;;;;5069131;28;20239;-61
2023/07/17 09:08:30;;;;;;;1.13;1.13;;;;;;;;;;5069333;28;20723;-59
2023/07/17 09:11:03;;;;;;;1.58;1.27;;;;;;;;;;5069662;28;20199;-62
2023/07/17 09:13:39;;;;;;;1.48;1.00;;;;;;;;;;5066154;28;20212;-65
2023/07/17 09:16:14;;;;;;;4.40;1.20;;;;;;;;;;5057309;28;20242;-60
2023/07/17 09:18:41;;;;;;;1.85;1.10;;;;;;;;;;5065099;28;20279;-57
2023/07/17 09:21:09;;;;;;;1.55;1.45;;;;;;;;;;5052716;28;20216;-57
2023/07/17 09:23:40;;;;;;;1.35;1.25;;;;;;;;;;5064935;28;20208;-58
2023/07/17 09:26:07;;;;;;;1.50;0.90;;;;;;;;;;5059949;28;20784;-58
2023/07/17 09:28:37;;;;;;;2.55;0.98;;;;;;;;;;5068322;28;20203;-59
2023/07/17 09:31:04;;;;;;;1.08;1.08;;;;;;;;;;5065824;28;20642;-59
2023/07/17 09:33:36;;;;;;;1.90;1.50;;;;;;;;;;5064312;28;20195;-59
2023/07/17 09:36:04;;;;;;;1.40;1.17;;;;;;;;;;5069156;28;20294;-59
2023/07/17 09:38:33;;;;;;;1.02;1.02;;;;;;;;;;5056465;28;20528;-59
2023/07/17 09:41:00;;;;;;;1.42;1.42;;;;;;;;;;5049508;28;20558;-59
2023/07/17 09:43:31;;;;;;;1.20;1.20;;;;;;;;;;5057203;28;20315;-59
2023/07/17 09:45:59;;;;;;;1.25;1.25;;;;;;;;;;5060957;28;20228;-60
2023/07/17 09:48:28;;;;;;;1.35;1.27;;;;;;;;;;5061583;28;20218;-59
2023/07/17 09:50:57;;;;;;;1.00;1.00;;;;;;;;;;5053000;28;20203;-60
2023/07/17 09:53:25;;;;;;;1.25;1.20;;;;;;;;;;5066909;28;20238;-60
2023/07/17 09:55:54;;;;;;;1.30;1.20;;;;;;;;;;5066689;28;20207;-60
2023/07/17 09:58:23;;;;;;;0.98;0.98;;;;;;;;;;5065653;28;20218;-60
2023/07/17 10:00:50;;;;;;;3.33;1.20;;;;;;;;;;5066562;28;20203;-60
2023/07/17 10:03:20;;;;;;;1.23;1.23;;;;;;;;;;5055856;28;20203;-58
2023/07/17 10:05:48;;;;;;;1.00;1.00;;;;;;;;;;5065517;28;20313;-58
2023/07/17 10:08:16;;;;;;;1.25;1.15;;;;;;;;;;5063271;28;20640;-59
2023/07/17 10:10:43;;;;;;;2.00;1.17;;;;;;;;;;5068321;28;20685;-59
2023/07/17 10:13:12;;;;;;;1.20;1.20;;;;;;;;;;5064856;28;20586;-59
2023/07/17 10:15:39;;;;;;;2.88;1.23;;;;;;;;;;5068120;28;20207;-65
2023/07/17 10:18:09;;;;;;;1.65;1.33;;;;;;;;;;5063734;28;20218;-59
2023/07/17 10:20:37;;;;;;;1.45;1.35;;;;;;;;;;5060411;28;20207;-59
2023/07/17 10:23:04;;;;;;;1.30;1.20;;;;;;;;;;5069019;28;20669;-59
2023/07/17 10:25:32;;;;;;;4.45;1.38;;;;;;;;;;5068869;28;20591;-59
2023/07/17 10:28:00;;;;;;;0.93;0.93;;;;;;;;;;5066234;28;20203;-59
2023/07/17 10:30:33;;;;;;;1.05;1.05;;;;;;;;;;5066948;28;20215;-59
2023/07/17 10:33:07;;;;;;;2.25;1.58;;;;;;;;;;5068726;28;20207;-59
2023/07/17 10:35:45;;;;;;;1.35;1.25;;;;;;;;;;5068101;28;20586;-59
2023/07/17 10:38:13;;;;;;;3.50;1.35;;;;;;;;;;5068956;28;20222;-59
2023/07/17 10:40:40;;;;;;;1.23;1.13;;;;;;;;;;5061705;28;20219;-58
2023/07/17 10:43:14;;;;;;;2.80;1.15;;;;;;;;;;5051827;28;20226;-58
2023/07/17 10:45:43;;;;;;;1.40;1.13;;;;;;;;;;5048336;28;20209;-58
2023/07/17 10:48:10;;;;;;;1.30;1.20;;;;;;;;;;5054895;28;20222;-58
2023/07/17 10:50:37;;;;;;;2.83;1.50;;;;;;;;;;5067776;28;20207;-59
2023/07/17 10:53:05;;;;;;;1.60;1.45;;;;;;;;;;5059249;28;20211;-59
2023/07/17 10:55:32;;;;;;;1.30;1.08;;;;;;;;;;5056793;28;20210;-58
2023/07/17 10:57:59;;;;;;;1.27;1.25;;;;;;;;;;5060394;28;20194;-58
2023/07/17 11:00:27;;;;;;;2.80;1.42;;;;;;;;;;5048511;28;20681;-60
2023/07/17 11:02:58;;;;;;;2.05;1.25;;;;;;;;;;5064290;28;20207;-59
2023/07/17 11:05:25;;;;;;;0.98;0.90;;;;;;;;;;5049534;28;20285;-58
2023/07/17 11:07:53;;;;;;;1.65;1.30;;;;;;;;;;5050365;28;20877;-59
2023/07/17 11:10:20;;;;;;;1.95;1.10;;;;;;;;;;5049218;28;20239;-58
2023/07/17 11:12:47;;;;;;;1.63;1.10;;;;;;;;;;5057843;28;20233;-58
2023/07/17 11:15:15;;;;;;;1.20;1.20;;;;;;;;;;5068212;28;20203;-58
2023/07/17 11:17:42;;;;;;;1.10;1.10;;;;;;;;;;5053133;28;20322;-58
2023/07/17 11:20:13;;;;;;;1.30;1.15;;;;;;;;;;5063095;28;20235;-59
2023/07/17 11:22:41;;;;;;;2.45;1.50;;;;;;;;;;5047672;28;20209;-58
2023/07/17 11:25:08;;;;;;;1.08;1.08;;;;;;;;;;5067658;28;20433;-60
2023/07/17 11:27:36;;;;;;;2.45;1.42;;;;;;;;;;5066306;28;20269;-60
2023/07/17 11:30:04;;;;;;;5.38;1.52;;;;;;;;;;5067227;28;20214;-59
2023/07/17 11:32:31;;;;;;;1.10;1.00;;;;;;;;;;5067095;28;20222;-60
2023/07/17 11:35:00;;;;;;;2.30;1.10;;;;;;;;;;5067250;28;20687;-59
2023/07/17 11:37:31;;;;;;;1.13;1.13;;;;;;;;;;5067308;28;20249;-59
2023/07/17 11:39:58;;;;;;;2.45;1.00;;;;;;;;;;5067205;28;20256;-59
2023/07/17 11:42:26;;;;;;;1.35;1.25;;;;;;;;;;5053106;28;20254;-59
2023/07/17 11:44:59;;;;;;;0.90;0.90;;;;;;;;;;5064814;28;20213;-59
2023/07/17 11:47:27;;;;;;;2.95;1.42;;;;;;;;;;5067254;28;20265;-59
2023/07/17 11:49:54;;;;;;;1.30;1.20;;;;;;;;;;5066958;28;20207;-59
2023/07/17 11:52:22;;;;;;;1.10;1.10;;;;;;;;;;5067029;28;20257;-60
2023/07/17 11:54:50;;;;;;;1.90;1.40;;;;;;;;;;5065580;28;20218;-59
2023/07/17 11:57:17;;;;;;;2.35;1.13;;;;;;;;;;5065200;28;20199;-59
2023/07/17 11:59:48;;;;;;;2.47;1.10;;;;;;;;;;5065568;28;20570;-59
2023/07/17 12:02:15;;;;;;;2.60;1.40;;;;;;;;;;5057352;28;20602;-60
2023/07/17 12:04:42;;;;;;;1.15;1.15;;;;;;;;;;5062446;28;20210;-59
2023/07/17 12:07:18;;;;;;;2.38;1.17;;;;;;;;;;5059211;28;20223;-60
2023/07/17 12:09:45;;;;;;;1.58;1.45;;;;;;;;;;5067152;28;20695;-60
2023/07/17 12:12:14;;;;;;;2.67;1.15;;;;;;;;;;5062090;28;20203;-60
2023/07/17 12:14:41;;;;;;;5.75;1.23;;;;;;;;;;5067176;28;20211;-60
2023/07/17 12:17:08;;;;;;;2.72;1.30;;;;;;;;;;5067212;28;20231;-60
2023/07/17 12:19:35;;;;;;;2.63;1.27;;;;;;;;;;5067164;28;20214;-60
2023/07/17 12:22:02;;;;;;;1.67;1.10;;;;;;;;;;5066871;28;20218;-61
2023/07/17 12:24:29;;;;;;;8.60;1.10;;;;;;;;;;5066920;28;20203;-60
2023/07/17 12:26:57;;;;;;;1.50;1.27;;;;;;;;;;5062502;28;20243;-60
2023/07/17 12:29:25;;;;;;;2.28;1.02;;;;;;;;;;5050894;28;20595;-59
2023/07/17 12:31:52;;;;;;;1.08;1.08;;;;;;;;;;5048019;28;20204;-59
2023/07/17 12:34:19;;;;;;;1.35;1.25;;;;;;;;;;5056671;28;20618;-59
2023/07/17 12:36:46;;;;;;;1.52;1.20;;;;;;;;;;5066875;28;20317;-59
2023/07/17 12:39:14;;;;;;;0.95;0.95;;;;;;;;;;5061252;28;20231;-60
2023/07/17 12:41:41;;;;;;;1.60;1.25;;;;;;;;;;5046655;28;20203;-59
2023/07/17 12:44:09;;;;;;;1.10;1.10;;;;;;;;;;5054644;28;20237;-59
2023/07/17 12:46:37;;;;;;;1.55;1.30;;;;;;;;;;5066324;28;20227;-59
2023/07/17 12:49:16;;;;;;;0.75;0.75;;;;;;;;;;5059992;28;20704;-59
2023/07/17 12:51:44;;;;;;;0.80;0.80;;;;;;;;;;5064138;28;20665;-60
2023/07/17 12:54:11;;;;;;;1.08;1.08;;;;;;;;;;5065588;28;20199;-60
2023/07/17 12:56:38;;;;;;;2.55;0.90;;;;;;;;;;5066566;28;20577;-59
2023/07/17 12:59:05;;;;;;;1.23;1.17;;;;;;;;;;5062019;28;20203;-59
2023/07/17 13:01:33;;;;;;;1.88;1.20;;;;;;;;;;5054844;28;20199;-59
2023/07/17 13:04:01;;;;;;;1.38;0.95;;;;;;;;;;5066030;28;20207;-59
2023/07/17 13:06:28;;;;;;;1.02;1.02;;;;;;;;;;5054783;28;20200;-59
2023/07/17 13:08:55;;;;;;;1.20;0.85;;;;;;;;;;5064829;28;20195;-59
2023/07/17 13:11:23;;;;;;;0.80;0.75;;;;;;;;;;5055301;28;20210;-59
2023/07/17 13:13:50;;;;;;;1.70;1.00;;;;;;;;;;5057580;28;20234;-60
2023/07/17 13:16:17;;;;;;;0.90;0.90;;;;;;;;;;5066476;28;20269;-60
2023/07/17 13:18:44;;;;;;;0.98;0.77;;;;;;;;;;5065810;28;20199;-60
2023/07/17 13:21:12;;;;;;;0.68;0.68;;;;;;;;;;5065418;28;20218;-60
2023/07/17 13:23:39;;;;;;;1.00;1.00;;;;;;;;;;5063118;28;20215;-60
2023/07/17 13:26:06;;;;;;;1.00;1.00;;;;;;;;;;5047653;28;20211;-60
2023/07/17 13:28:34;;;;;;;1.00;1.00;;;;;;;;;;5046597;28;20226;-70
2023/07/17 13:31:02;;;;;;;1.02;1.02;;;;;;;;;;5066132;28;20297;-58
2023/07/17 13:33:29;;;;;;;1.02;1.02;;;;;;;;;;5069377;28;20226;-58
2023/07/17 13:35:56;;;;;;;0.60;0.60;;;;;;;;;;5049716;28;20971;-59
2023/07/17 13:38:25;;;;;;;1.08;0.98;;;;;;;;;;5048262;28;20265;-59
2023/07/17 13:40:52;;;;;;;0.90;0.90;;;;;;;;;;5062054;28;20227;-60
2023/07/17 13:43:24;;;;;;;1.20;0.98;;;;;;;;;;5052904;28;20216;-60
2023/07/17 13:45:53;;;;;;;0.75;0.75;;;;;;;;;;5062231;28;20215;-60
2023/07/17 13:48:20;;;;;;;0.90;0.90;;;;;;;;;;5064522;28;20230;-60
2023/07/17 13:50:47;;;;;;;2.55;1.00;;;;;;;;;;5052517;28;20211;-61
2023/07/17 13:53:14;;;;;;;0.80;0.80;;;;;;;;;;5047199;28;20204;-61
2023/07/17 13:55:42;;;;;;;1.27;0.80;;;;;;;;;;5062701;28;20207;-61
2023/07/17 13:58:09;;;;;;;0.77;0.77;;;;;;;;;;5053741;28;20214;-59
2023/07/17 14:00:36;;;;;;;1.15;1.15;;;;;;;;;;5065439;28;20597;-59
2023/07/17 14:03:04;;;;;;;1.10;0.93;;;;;;;;;;5068667;28;20210;-59
2023/07/17 14:05:31;;;;;;;1.95;1.10;;;;;;;;;;5055094;28;20570;-59
2023/07/17 14:07:58;;;;;;;0.98;0.98;;;;;;;;;;5054528;28;20234;-59
2023/07/17 14:10:26;;;;;;;0.88;0.88;;;;;;;;;;5064263;28;20211;-60
2023/07/17 14:12:54;;;;;;;0.93;0.93;;;;;;;;;;5048379;28;20204;-60
2023/07/17 14:15:21;;;;;;;1.35;0.90;;;;;;;;;;5052361;28;20195;-59
2023/07/17 14:17:48;;;;;;;1.23;1.08;;;;;;;;;;5056831;28;20228;-59
2023/07/17 14:20:15;;;;;;;2.58;1.25;;;;;;;;;;5049574;28;20199;-59
2023/07/17 14:22:44;;;;;;;4.05;0.80;;;;;;;;;;5057410;28;20214;-59
2023/07/17 14:25:11;;;;;;;1.85;0.75;;;;;;;;;;5068797;28;20218;-60
2023/07/17 14:27:38;;;;;;;0.80;0.80;;;;;;;;;;5065328;28;20238;-60
2023/07/17 14:30:07;;;;;;;0.70;0.70;;;;;;;;;;5068650;28;20215;-60
2023/07/17 14:32:34;;;;;;;1.77;0.88;;;;;;;;;;5065866;28;20211;-60
2023/07/17 14:35:01;;;;;;;0.85;0.85;;;;;;;;;;5066795;28;20213;-60
2023/07/17 14:37:28;;;;;;;1.95;0.98;;;;;;;;;;5060933;28;20448;-60
2023/07/17 14:39:55;;;;;;;0.70;0.70;;;;;;;;;;5049333;28;20658;-59
2023/07/17 14:42:23;;;;;;;0.70;0.70;;;;;;;;;;5063303;28;20214;-60
2023/07/17 14:44:50;;;;;;;1.88;0.90;;;;;;;;;;5056107;28;20210;-59
2023/07/17 14:47:19;;;;;;;0.70;0.63;;;;;;;;;;5062558;28;20238;-60
2023/07/17 14:49:46;;;;;;;0.70;0.70;;;;;;;;;;5067789;28;20211;-60
2023/07/17 14:52:13;;;;;;;0.73;0.73;;;;;;;;;;5058989;28;20202;-60